createdAt,value
2022-11-27T00:01:22.865Z,2.40
2022-11-27T00:03:50.577Z,2.50
2022-11-27T00:06:21.053Z,2.50
2022-11-27T00:08:48.702Z,2.50
2022-11-27T00:11:19.949Z,2.50
2022-11-27T00:13:47.776Z,2.60
2022-11-27T00:16:15.611Z,2.50
2022-11-27T00:18:43.513Z,2.50
2022-11-27T00:21:22.984Z,2.60
2022-11-27T00:23:51.458Z,2.60
2022-11-27T00:26:19.067Z,2.60
2022-11-27T00:28:46.479Z,2.60
2022-11-27T00:31:18.123Z,2.60
2022-11-27T00:33:45.837Z,2.60
2022-11-27T00:36:14.287Z,2.70
2022-11-27T00:38:41.587Z,2.70
2022-11-27T00:41:10.533Z,2.70
2022-11-27T00:43:44.057Z,2.60
2022-11-27T00:46:13.526Z,2.60
2022-11-27T00:48:41.311Z,2.60
2022-11-27T00:51:10.547Z,2.50
2022-11-27T00:53:37.711Z,2.50
2022-11-27T00:56:05.197Z,2.40
2022-11-27T00:58:32.343Z,2.40
2022-11-27T01:01:03.223Z,2.40
2022-11-27T01:03:31.236Z,2.40
2022-11-27T01:06:02.707Z,2.40
2022-11-27T01:08:29.724Z,2.30
2022-11-27T01:10:59.008Z,2.20
2022-11-27T01:13:28.478Z,2.20
2022-11-27T01:16:04.235Z,2.10
2022-11-27T01:18:31.674Z,2.10
2022-11-27T01:20:58.897Z,2.10
2022-11-27T01:23:26.286Z,2.10
2022-11-27T01:25:53.936Z,2.10
2022-11-27T01:28:22.637Z,2.10
2022-11-27T01:30:50.904Z,2.00
2022-11-27T01:33:18.634Z,2.00
2022-11-27T01:35:56.400Z,1.90
2022-11-27T01:38:24.583Z,1.80
2022-11-27T01:41:31.461Z,1.90
2022-11-27T01:44:01.434Z,1.90
2022-11-27T01:46:37.070Z,1.90
2022-11-27T01:49:11.564Z,1.90
2022-11-27T01:51:47.072Z,1.90
2022-11-27T01:54:16.328Z,1.90
2022-11-27T01:56:46.490Z,1.90
2022-11-27T01:59:14.607Z,1.90
2022-11-27T02:01:41.693Z,1.90
2022-11-27T02:04:08.731Z,1.90
2022-11-27T02:06:35.987Z,1.90
2022-11-27T02:09:03.793Z,1.90
2022-11-27T02:11:46.523Z,1.90
2022-11-27T02:14:39.662Z,1.90
2022-11-27T02:17:06.875Z,1.90
2022-11-27T02:19:50.760Z,1.90
2022-11-27T02:22:30.596Z,1.90
2022-11-27T02:25:37.521Z,2.00
2022-11-27T02:28:20.169Z,2.00
2022-11-27T02:30:54.781Z,2.00
2022-11-27T02:33:21.859Z,2.10
2022-11-27T02:35:54.566Z,2.10
2022-11-27T02:38:26.478Z,2.20
2022-11-27T02:41:00.604Z,2.10
2022-11-27T02:43:33.943Z,2.10
2022-11-27T02:46:02.418Z,2.10
2022-11-27T02:48:35.696Z,2.20
2022-11-27T02:51:06.022Z,2.20
2022-11-27T02:53:38.350Z,2.30
2022-11-27T02:56:13.361Z,2.30
2022-11-27T02:58:41.925Z,2.30
2022-11-27T03:01:12.506Z,2.40
2022-11-27T03:03:44.068Z,2.30
2022-11-27T03:06:16.085Z,2.30
2022-11-27T03:08:54.504Z,2.30
2022-11-27T03:11:22.285Z,2.30
2022-11-27T03:13:53.738Z,2.30
2022-11-27T03:16:47.856Z,2.30
2022-11-27T03:19:37.387Z,2.30
2022-11-27T03:22:05.020Z,2.30
2022-11-27T03:24:34.758Z,2.30
2022-11-27T03:27:02.951Z,2.30
2022-11-27T03:29:51.954Z,2.30
2022-11-27T03:32:19.075Z,2.30
2022-11-27T03:34:47.542Z,2.30
2022-11-27T03:37:14.934Z,2.30
2022-11-27T03:39:42.441Z,2.30
2022-11-27T03:42:26.830Z,2.40
2022-11-27T03:45:03.259Z,2.40
2022-11-27T03:47:57.775Z,2.40
2022-11-27T03:50:32.365Z,2.40
2022-11-27T03:53:18.164Z,2.30
2022-11-27T03:55:52.837Z,2.20
2022-11-27T03:58:22.652Z,2.30
2022-11-27T04:00:52.687Z,2.30
2022-11-27T04:03:25.393Z,2.20
2022-11-27T04:05:52.702Z,2.30
2022-11-27T04:08:20.297Z,2.20
2022-11-27T04:10:48.137Z,2.20
2022-11-27T04:13:15.875Z,2.30
2022-11-27T04:15:43.009Z,2.30
2022-11-27T04:18:10.238Z,2.30
2022-11-27T04:20:37.473Z,2.30
2022-11-27T04:23:04.640Z,2.30
2022-11-27T04:25:31.840Z,2.30
2022-11-27T04:27:58.848Z,2.20
2022-11-27T04:30:26.021Z,2.30
2022-11-27T04:32:53.008Z,2.30
2022-11-27T04:35:20.138Z,2.20
2022-11-27T04:37:47.144Z,2.20
2022-11-27T04:40:14.455Z,2.20
2022-11-27T04:42:41.673Z,2.20
2022-11-27T04:45:09.560Z,2.20
2022-11-27T04:47:36.691Z,2.20
2022-11-27T04:50:04.219Z,2.10
2022-11-27T04:52:31.236Z,2.10
2022-11-27T04:55:00.232Z,2.10
2022-11-27T04:57:27.895Z,2.10
2022-11-27T04:59:55.082Z,2.00
2022-11-27T05:02:22.283Z,2.00
2022-11-27T05:04:49.420Z,2.00
2022-11-27T05:07:16.524Z,2.00
2022-11-27T05:09:43.608Z,2.00
2022-11-27T05:12:10.628Z,2.00
2022-11-27T05:14:37.950Z,2.00
2022-11-27T05:17:05.360Z,2.00
2022-11-27T05:19:32.879Z,1.90
2022-11-27T05:22:00.008Z,1.90
2022-11-27T05:24:28.745Z,1.90
2022-11-27T05:26:57.051Z,1.90
2022-11-27T05:29:25.814Z,1.90
2022-11-27T05:31:53.140Z,1.90
2022-11-27T05:34:20.409Z,1.90
2022-11-27T05:36:47.700Z,1.90
2022-11-27T05:39:15.380Z,1.80
2022-11-27T05:41:43.466Z,1.90
2022-11-27T05:44:15.202Z,1.90
2022-11-27T05:46:43.889Z,1.80
2022-11-27T05:49:14.054Z,1.90
2022-11-27T05:51:44.193Z,1.80
2022-11-27T05:54:16.310Z,1.80
2022-11-27T05:56:43.447Z,1.80
2022-11-27T05:59:11.021Z,1.70
2022-11-27T06:01:38.068Z,1.70
2022-11-27T06:04:05.351Z,1.60
2022-11-27T06:06:32.904Z,1.60
2022-11-27T06:09:00.447Z,1.60
2022-11-27T06:11:27.519Z,1.60
2022-11-27T06:13:54.605Z,1.60
2022-11-27T06:16:23.765Z,1.60
2022-11-27T06:18:53.726Z,1.60
2022-11-27T06:21:22.564Z,1.70
2022-11-27T06:23:52.703Z,1.70
2022-11-27T06:26:23.218Z,1.80
2022-11-27T06:28:50.462Z,1.90
2022-11-27T06:31:20.543Z,1.90
2022-11-27T06:33:49.438Z,2.00
2022-11-27T06:36:16.834Z,2.20
2022-11-27T06:38:44.582Z,2.40
2022-11-27T06:41:14.562Z,2.50
2022-11-27T06:43:41.947Z,2.70
2022-11-27T06:46:14.104Z,2.80
2022-11-27T06:48:42.158Z,2.90
2022-11-27T06:51:14.279Z,2.90
2022-11-27T06:53:42.442Z,2.80
2022-11-27T06:56:12.031Z,2.70
2022-11-27T06:58:39.380Z,3.10
2022-11-27T07:01:10.215Z,4.30
2022-11-27T07:03:37.517Z,6.00
2022-11-27T07:06:07.190Z,7.30
2022-11-27T07:08:35.118Z,8.70
2022-11-27T07:11:03.843Z,9.90
2022-11-27T07:13:31.695Z,10.90
2022-11-27T07:16:01.880Z,11.30
2022-11-27T07:18:30.414Z,12.30
2022-11-27T07:20:57.985Z,12.70
2022-11-27T07:23:25.194Z,13.30
2022-11-27T07:25:52.364Z,13.90
2022-11-27T07:28:19.594Z,13.70
2022-11-27T07:30:53.926Z,14.30
2022-11-27T07:33:21.019Z,14.40
2022-11-27T07:35:48.029Z,14.80
2022-11-27T07:38:15.214Z,15.20
2022-11-27T07:40:42.417Z,15.30
2022-11-27T07:43:09.670Z,15.50
2022-11-27T07:45:36.818Z,15.70
2022-11-27T07:48:04.619Z,15.30
2022-11-27T07:50:32.031Z,16.00
2022-11-27T07:52:59.232Z,16.30
2022-11-27T07:55:26.324Z,16.30
2022-11-27T07:57:53.510Z,16.60
2022-11-27T08:00:21.026Z,16.70
2022-11-27T08:02:48.124Z,16.50
2022-11-27T08:05:15.545Z,16.40
2022-11-27T08:07:42.757Z,17.10
2022-11-27T08:10:10.064Z,17.10
2022-11-27T08:12:37.124Z,17.00
2022-11-27T08:15:05.839Z,17.20
2022-11-27T08:17:32.919Z,17.30
2022-11-27T08:20:00.131Z,17.00
2022-11-27T08:22:27.579Z,17.00
2022-11-27T08:24:54.738Z,17.00
2022-11-27T08:27:21.853Z,17.00
2022-11-27T08:29:48.815Z,17.30
2022-11-27T08:32:16.011Z,17.50
2022-11-27T08:34:43.400Z,17.90
2022-11-27T08:37:10.720Z,17.80
2022-11-27T08:39:37.868Z,17.80
2022-11-27T08:42:04.944Z,17.60
2022-11-27T08:44:32.191Z,17.60
2022-11-27T08:46:59.229Z,17.40
2022-11-27T08:49:26.418Z,17.40
2022-11-27T08:51:53.692Z,17.40
2022-11-27T08:54:20.922Z,17.90
2022-11-27T08:56:48.022Z,17.80
2022-11-27T08:59:15.139Z,18.00
2022-11-27T09:01:42.187Z,18.00
2022-11-27T09:04:09.327Z,18.20
2022-11-27T09:06:36.656Z,18.50
2022-11-27T09:09:06.245Z,18.50
2022-11-27T09:11:34.982Z,17.70
2022-11-27T09:14:04.232Z,17.70
2022-11-27T09:16:32.003Z,17.90
2022-11-27T09:18:59.230Z,17.80
2022-11-27T09:21:28.843Z,17.70
2022-11-27T09:23:58.961Z,17.30
2022-11-27T09:26:27.489Z,17.20
2022-11-27T09:28:55.628Z,16.20
2022-11-27T09:31:23.660Z,15.70
2022-11-27T09:33:50.892Z,15.30
2022-11-27T09:36:21.318Z,14.90
2022-11-27T09:38:48.608Z,13.90
2022-11-27T09:41:55.539Z,13.60
2022-11-27T09:44:31.206Z,13.00
2022-11-27T09:47:06.846Z,12.70
2022-11-27T09:49:41.868Z,12.60
2022-11-27T09:52:35.109Z,12.50
2022-11-27T09:55:05.412Z,12.50
2022-11-27T09:57:35.935Z,12.40
2022-11-27T10:00:13.390Z,12.40
2022-11-27T10:02:43.359Z,12.40
2022-11-27T10:05:36.869Z,12.40
2022-11-27T10:08:26.622Z,12.30
2022-11-27T10:10:55.165Z,12.40
2022-11-27T10:13:22.299Z,12.40
2022-11-27T10:16:14.328Z,12.40
2022-11-27T10:18:55.378Z,12.30
2022-11-27T10:21:42.377Z,12.20
2022-11-27T10:24:14.107Z,12.00
2022-11-27T10:26:46.312Z,12.00
2022-11-27T10:29:47.246Z,12.10
2022-11-27T10:32:53.405Z,12.00
2022-11-27T10:35:26.235Z,12.20
2022-11-27T10:38:16.606Z,12.30
2022-11-27T10:40:54.626Z,12.50
2022-11-27T10:43:25.277Z,12.60
2022-11-27T10:46:14.689Z,12.50
2022-11-27T10:48:42.230Z,12.50
2022-11-27T10:51:21.505Z,12.60
2022-11-27T10:53:52.865Z,12.60
2022-11-27T10:56:27.544Z,12.70
2022-11-27T10:59:00.639Z,12.70
2022-11-27T11:01:40.598Z,12.60
2022-11-27T11:04:35.766Z,12.70
2022-11-27T11:06:57.307Z,12.70
2022-11-27T11:09:29.659Z,12.90
2022-11-27T11:12:20.522Z,12.90
2022-11-27T11:14:57.106Z,12.80
2022-11-27T11:17:27.921Z,12.80
2022-11-27T11:19:55.178Z,12.70
2022-11-27T11:22:23.006Z,12.80
2022-11-27T11:24:52.781Z,12.90
2022-11-27T11:27:21.751Z,12.90
2022-11-27T11:29:51.971Z,12.90
2022-11-27T11:32:20.114Z,12.80
2022-11-27T11:34:56.226Z,12.70
2022-11-27T11:37:32.216Z,12.50
2022-11-27T11:40:20.367Z,12.40
2022-11-27T11:42:59.055Z,12.50
2022-11-27T11:45:31.343Z,12.50
2022-11-27T11:48:03.231Z,12.60
2022-11-27T11:50:41.479Z,12.70
2022-11-27T11:53:17.035Z,12.60
2022-11-27T11:56:06.209Z,12.80
2022-11-27T11:58:50.575Z,12.80
2022-11-27T12:01:45.313Z,12.80
2022-11-27T12:04:52.334Z,12.80
2022-11-27T12:07:22.836Z,12.90
2022-11-27T12:10:05.031Z,12.70
2022-11-27T12:12:33.468Z,12.60
2022-11-27T12:15:10.905Z,12.70
2022-11-27T12:17:40.223Z,12.80
2022-11-27T12:20:17.391Z,12.90
2022-11-27T12:23:14.125Z,12.90
2022-11-27T12:25:47.636Z,13.00
2022-11-27T12:28:21.639Z,13.10
2022-11-27T12:30:55.024Z,13.30
2022-11-27T12:33:27.137Z,13.20
2022-11-27T12:36:07.137Z,13.00
2022-11-27T12:39:14.287Z,13.00
2022-11-27T12:42:22.255Z,12.80
2022-11-27T12:45:20.045Z,12.40
2022-11-27T12:47:55.706Z,12.30
2022-11-27T12:50:42.386Z,11.90
2022-11-27T12:53:16.780Z,11.80
2022-11-27T12:56:01.022Z,11.70
2022-11-27T12:58:33.503Z,11.80
2022-11-27T13:01:07.412Z,12.00
2022-11-27T13:03:44.109Z,12.10
2022-11-27T13:06:17.725Z,12.00
2022-11-27T13:09:08.103Z,12.20
2022-11-27T13:11:39.336Z,12.30
2022-11-27T13:14:11.525Z,12.30
2022-11-27T13:16:45.961Z,12.50
2022-11-27T13:19:16.337Z,12.50
2022-11-27T13:21:46.321Z,12.50
2022-11-27T13:24:14.205Z,12.40
2022-11-27T13:26:49.181Z,12.20
2022-11-27T13:29:27.677Z,12.00
2022-11-27T13:31:58.770Z,11.90
2022-11-27T13:34:30.133Z,11.70
2022-11-27T13:37:07.369Z,11.60
2022-11-27T13:39:38.985Z,11.60
2022-11-27T13:42:07.841Z,11.40
2022-11-27T13:44:41.808Z,11.40
2022-11-27T13:47:14.565Z,11.30
2022-11-27T13:49:43.526Z,11.20
2022-11-27T13:52:11.712Z,10.90
2022-11-27T13:54:39.466Z,10.90
2022-11-27T13:57:22.214Z,10.80
2022-11-27T14:00:12.916Z,10.70
2022-11-27T14:02:41.821Z,10.60
2022-11-27T14:05:09.197Z,10.50
2022-11-27T14:07:41.517Z,10.50
2022-11-27T14:10:14.945Z,10.30
2022-11-27T14:12:52.228Z,10.20
2022-11-27T14:15:19.467Z,10.20
2022-11-27T14:17:49.346Z,10.10
2022-11-27T14:20:16.609Z,10.00
2022-11-27T14:23:07.129Z,9.80
2022-11-27T14:25:33.987Z,9.80
2022-11-27T14:28:04.668Z,9.70
2022-11-27T14:30:35.717Z,9.50
2022-11-27T14:33:04.674Z,9.30
2022-11-27T14:35:32.112Z,9.20
2022-11-27T14:38:16.232Z,9.10
2022-11-27T14:40:44.076Z,8.90
2022-11-27T14:43:24.651Z,8.90
2022-11-27T14:45:56.313Z,8.80
2022-11-27T14:48:26.290Z,8.60
2022-11-27T14:50:55.916Z,8.40
2022-11-27T14:53:26.566Z,8.20
2022-11-27T14:55:57.846Z,8.10
2022-11-27T14:58:27.514Z,7.90
2022-11-27T15:00:57.720Z,7.70
2022-11-27T15:03:26.105Z,7.50
2022-11-27T15:05:55.413Z,7.30
2022-11-27T15:08:22.727Z,7.20
2022-11-27T15:10:56.249Z,7.00
2022-11-27T15:13:27.708Z,6.90
2022-11-27T15:15:58.956Z,6.70
2022-11-27T15:18:27.976Z,6.50
2022-11-27T15:20:56.043Z,6.30
2022-11-27T15:23:28.035Z,6.10
2022-11-27T15:26:02.512Z,6.00
2022-11-27T15:28:34.021Z,5.80
2022-11-27T15:31:02.860Z,5.60
2022-11-27T15:33:32.449Z,5.50
2022-11-27T15:36:20.880Z,5.40
2022-11-27T15:38:51.012Z,5.20
2022-11-27T15:41:27.890Z,5.10
2022-11-27T15:43:56.508Z,5.00
2022-11-27T15:46:30.318Z,4.90
2022-11-27T15:48:58.520Z,4.90
2022-11-27T15:51:25.939Z,4.80
2022-11-27T15:53:53.044Z,4.60
2022-11-27T15:56:20.880Z,4.60
2022-11-27T15:58:47.963Z,4.60
2022-11-27T16:01:15.066Z,4.50
2022-11-27T16:03:42.393Z,4.40
2022-11-27T16:06:09.799Z,4.40
2022-11-27T16:08:37.182Z,4.20
2022-11-27T16:11:08.427Z,4.10
2022-11-27T16:13:35.712Z,4.00
2022-11-27T16:16:06.018Z,4.00
2022-11-27T16:18:34.588Z,3.90
2022-11-27T16:21:04.835Z,3.90
2022-11-27T16:23:36.672Z,4.00
2022-11-27T16:26:04.702Z,4.00
2022-11-27T16:28:32.359Z,4.00
2022-11-27T16:31:01.694Z,4.00
2022-11-27T16:33:30.706Z,3.90
2022-11-27T16:36:06.344Z,3.90
2022-11-27T16:38:34.814Z,3.70
2022-11-27T16:41:04.843Z,3.60
2022-11-27T16:43:37.030Z,3.50
2022-11-27T16:46:07.429Z,3.40
2022-11-27T16:48:36.783Z,3.40
2022-11-27T16:51:07.677Z,3.30
2022-11-27T16:53:40.129Z,3.30
2022-11-27T16:56:08.698Z,3.30
2022-11-27T16:58:38.718Z,3.20
2022-11-27T17:01:07.806Z,3.20
2022-11-27T17:03:36.101Z,3.10
2022-11-27T17:06:13.251Z,3.10
2022-11-27T17:08:41.019Z,3.20
2022-11-27T17:11:09.385Z,3.20
2022-11-27T17:13:36.731Z,3.20
2022-11-27T17:16:05.528Z,3.20
2022-11-27T17:18:33.401Z,3.20
2022-11-27T17:21:04.231Z,3.10
2022-11-27T17:23:31.672Z,3.10
2022-11-27T17:25:58.879Z,3.00
2022-11-27T17:28:27.947Z,2.90
2022-11-27T17:30:55.268Z,2.90
2022-11-27T17:33:23.292Z,2.80
2022-11-27T17:35:50.330Z,2.70
2022-11-27T17:38:17.706Z,2.70
2022-11-27T17:40:44.951Z,2.70
2022-11-27T17:43:12.016Z,2.60
2022-11-27T17:45:43.068Z,2.60
2022-11-27T17:48:10.290Z,2.60
2022-11-27T17:50:37.458Z,2.60
2022-11-27T17:53:05.064Z,2.60
2022-11-27T17:55:33.633Z,2.60
2022-11-27T17:58:00.678Z,2.50
2022-11-27T18:00:28.304Z,2.50
2022-11-27T18:02:55.568Z,2.50
2022-11-27T18:05:23.392Z,2.30
2022-11-27T18:07:50.864Z,2.30
2022-11-27T18:10:19.196Z,2.30
2022-11-27T18:12:46.648Z,2.30
2022-11-27T18:15:14.394Z,2.20
2022-11-27T18:17:41.608Z,2.20
2022-11-27T18:20:09.093Z,2.10
2022-11-27T18:22:36.402Z,2.00
2022-11-27T18:25:03.953Z,2.00
2022-11-27T18:27:31.127Z,1.90
2022-11-27T18:29:58.510Z,1.90
2022-11-27T18:32:26.689Z,1.80
2022-11-27T18:34:54.775Z,1.80
2022-11-27T18:37:23.544Z,1.70
2022-11-27T18:39:51.558Z,1.70
2022-11-27T18:42:18.733Z,1.60
2022-11-27T18:44:45.785Z,1.50
2022-11-27T18:47:15.001Z,1.50
2022-11-27T18:49:44.897Z,1.40
2022-11-27T18:52:13.012Z,1.40
2022-11-27T18:54:41.277Z,1.40
2022-11-27T18:57:08.674Z,1.40
2022-11-27T18:59:36.090Z,1.40
2022-11-27T19:02:04.393Z,1.40
2022-11-27T19:04:31.631Z,1.30
2022-11-27T19:06:58.714Z,1.30
2022-11-27T19:09:26.248Z,1.30
2022-11-27T19:11:53.841Z,1.30
2022-11-27T19:14:20.907Z,1.30
2022-11-27T19:16:48.671Z,1.30
2022-11-27T19:20:04.997Z,1.30
2022-11-27T19:22:08.092Z,1.30
2022-11-27T19:24:35.407Z,1.30
2022-11-27T19:27:03.306Z,1.30
2022-11-27T19:29:30.441Z,1.30
2022-11-27T19:31:59.056Z,1.30
2022-11-27T19:34:26.702Z,1.20
2022-11-27T19:36:53.813Z,1.20
2022-11-27T19:39:21.217Z,1.10
2022-11-27T19:41:49.602Z,1.10
2022-11-27T19:44:17.660Z,1.00
2022-11-27T19:46:46.490Z,1.00
2022-11-27T19:49:17.924Z,1.00
2022-11-27T19:51:46.768Z,0.90
2022-11-27T19:54:15.647Z,0.90
2022-11-27T19:56:43.441Z,0.80
2022-11-27T19:59:12.710Z,0.80
2022-11-27T20:01:41.605Z,0.80
2022-11-27T20:04:12.302Z,0.80
2022-11-27T20:06:39.917Z,0.80
2022-11-27T20:09:07.939Z,0.80
2022-11-27T20:11:36.410Z,0.80
2022-11-27T20:14:05.798Z,0.70
2022-11-27T20:16:35.238Z,0.70
2022-11-27T20:19:05.582Z,0.80
2022-11-27T20:21:35.646Z,0.80
2022-11-27T20:24:04.320Z,0.80
2022-11-27T20:26:37.189Z,0.70
2022-11-27T20:29:06.177Z,0.70
2022-11-27T20:31:35.957Z,0.50
2022-11-27T20:34:05.228Z,0.50
2022-11-27T20:36:34.608Z,0.50
2022-11-27T20:39:02.093Z,0.50
2022-11-27T20:41:29.869Z,0.40
2022-11-27T20:43:59.708Z,0.40
2022-11-27T20:46:27.810Z,0.30
2022-11-27T20:48:55.996Z,0.30
2022-11-27T20:51:28.762Z,0.30
2022-11-27T20:53:57.981Z,0.30
2022-11-27T20:56:25.622Z,0.30
2022-11-27T20:58:53.639Z,0.30
2022-11-27T21:01:23.732Z,0.20
2022-11-27T21:03:52.938Z,0.20
2022-11-27T21:06:22.423Z,0.30
2022-11-27T21:08:49.937Z,0.30
2022-11-27T21:11:28.859Z,0.20
2022-11-27T21:13:58.526Z,0.20
2022-11-27T21:16:28.800Z,0.10
2022-11-27T21:18:58.996Z,0.10
2022-11-27T21:21:27.015Z,0.00
2022-11-27T21:23:55.306Z,0.00
2022-11-27T21:26:22.986Z,0.00
2022-11-27T21:28:50.853Z,0.00
2022-11-27T21:31:20.973Z,-0.10
2022-11-27T21:33:52.135Z,-0.10
2022-11-27T21:36:21.041Z,-0.20
2022-11-27T21:38:48.598Z,-0.20
2022-11-27T21:41:17.834Z,-0.30
2022-11-27T21:43:46.233Z,-0.20
2022-11-27T21:46:17.507Z,-0.20
2022-11-27T21:48:46.760Z,-0.20
2022-11-27T21:51:15.479Z,-0.20
2022-11-27T21:53:45.826Z,-0.10
2022-11-27T21:56:15.347Z,-0.10
2022-11-27T21:58:43.579Z,-0.10
2022-11-27T22:01:14.253Z,-0.30
2022-11-27T22:03:42.967Z,-0.20
2022-11-27T22:06:12.949Z,-0.30
2022-11-27T22:08:41.485Z,-0.20
2022-11-27T22:11:11.158Z,-0.30
2022-11-27T22:13:38.652Z,-0.20
2022-11-27T22:16:13.001Z,-0.30
2022-11-27T22:18:41.134Z,-0.30
2022-11-27T22:21:10.631Z,-0.30
2022-11-27T22:23:38.921Z,-0.30
2022-11-27T22:26:09.168Z,-0.30
2022-11-27T22:28:37.268Z,-0.30
2022-11-27T22:31:14.185Z,-0.30
2022-11-27T22:33:42.513Z,-0.30
2022-11-27T22:36:15.988Z,-0.30
2022-11-27T22:38:44.803Z,-0.30
2022-11-27T22:41:13.557Z,-0.30
2022-11-27T22:43:41.683Z,-0.30
2022-11-27T22:46:13.295Z,-0.30
2022-11-27T22:48:40.974Z,-0.40
2022-11-27T22:51:08.906Z,-0.40
2022-11-27T22:53:37.615Z,-0.40
2022-11-27T22:56:07.056Z,-0.40
2022-11-27T22:58:39.783Z,-0.40
2022-11-27T23:01:13.574Z,-0.50
2022-11-27T23:03:41.005Z,-0.40
2022-11-27T23:06:12.146Z,-0.40
2022-11-27T23:08:42.411Z,-0.40
2022-11-27T23:11:13.791Z,-0.50
2022-11-27T23:13:45.074Z,-0.50
2022-11-27T23:16:16.780Z,-0.50
2022-11-27T23:18:43.982Z,-0.50
2022-11-27T23:21:13.960Z,-0.50
2022-11-27T23:23:41.903Z,-0.50
2022-11-27T23:26:17.736Z,-0.50
2022-11-27T23:28:46.470Z,-0.60
2022-11-27T23:31:29.320Z,-0.60
2022-11-27T23:33:57.673Z,-0.60
2022-11-27T23:36:25.439Z,-0.60
2022-11-27T23:38:52.723Z,-0.60
2022-11-27T23:41:23.385Z,-0.60
2022-11-27T23:43:51.523Z,-0.60
2022-11-27T23:46:21.237Z,-0.70
2022-11-27T23:48:49.118Z,-0.70
2022-11-27T23:51:19.175Z,-0.60
2022-11-27T23:53:47.470Z,-0.60
2022-11-27T23:56:18.443Z,-0.40
2022-11-27T23:58:47.626Z,-0.40
